createdAt,value
2022-08-19T00:01:55.151Z,99.60
2022-08-19T00:04:41.393Z,97.68
2022-08-19T00:07:26.506Z,98.44
2022-08-19T00:10:15.532Z,98.50
2022-08-19T00:13:01.103Z,98.03
2022-08-19T00:15:45.917Z,98.08
2022-08-19T00:18:31.846Z,97.94
2022-08-19T00:21:17.162Z,98.84
2022-08-19T00:24:02.717Z,99.23
2022-08-19T00:26:48.064Z,98.26
2022-08-19T00:29:33.111Z,98.40
2022-08-19T00:32:18.591Z,98.64
2022-08-19T00:35:05.558Z,98.17
2022-08-19T00:37:51.209Z,98.54
2022-08-19T00:40:36.201Z,98.75
2022-08-19T00:43:25.220Z,98.49
2022-08-19T00:46:10.541Z,99.49
2022-08-19T00:48:57.569Z,98.86
2022-08-19T00:51:45.548Z,97.87
2022-08-19T00:54:31.543Z,97.75
2022-08-19T00:57:21.378Z,97.81
2022-08-19T01:00:11.024Z,98.88
2022-08-19T01:02:56.887Z,99.75
2022-08-19T01:05:44.470Z,100.00
2022-08-19T01:08:29.598Z,100.00
2022-08-19T01:11:15.239Z,99.56
2022-08-19T01:14:00.650Z,99.78
2022-08-19T01:16:47.548Z,100.00
2022-08-19T01:19:44.148Z,100.00
2022-08-19T01:22:38.534Z,100.00
2022-08-19T01:25:30.053Z,100.00
2022-08-19T01:28:21.828Z,100.00
2022-08-19T01:31:27.019Z,100.00
2022-08-19T01:34:12.708Z,100.00
2022-08-19T01:36:57.578Z,100.00
2022-08-19T01:39:43.727Z,100.00
2022-08-19T01:42:29.931Z,100.00
2022-08-19T01:45:15.809Z,100.00
2022-08-19T01:48:02.533Z,100.00
2022-08-19T01:50:47.753Z,100.00
2022-08-19T01:53:33.955Z,100.00
2022-08-19T01:56:20.000Z,100.00
2022-08-19T01:59:11.324Z,100.00
2022-08-19T02:01:56.464Z,99.81
2022-08-19T02:04:41.716Z,99.64
2022-08-19T02:07:27.054Z,99.32
2022-08-19T02:10:16.562Z,100.00
2022-08-19T02:13:01.800Z,100.00
2022-08-19T02:15:46.805Z,100.00
2022-08-19T02:18:31.869Z,100.00
2022-08-19T02:21:18.839Z,100.00
2022-08-19T02:24:04.299Z,100.00
2022-08-19T02:26:49.864Z,100.00
2022-08-19T02:29:34.713Z,100.00
2022-08-19T02:32:20.761Z,100.00
2022-08-19T02:35:12.257Z,100.00
2022-08-19T02:37:58.282Z,100.00
2022-08-19T02:40:52.636Z,100.00
2022-08-19T02:43:38.286Z,100.00
2022-08-19T02:46:26.835Z,100.00
2022-08-19T02:49:11.889Z,100.00
2022-08-19T02:51:57.161Z,99.99
2022-08-19T02:54:42.074Z,100.00
2022-08-19T02:57:27.680Z,99.72
2022-08-19T03:00:13.383Z,99.88
2022-08-19T03:02:58.661Z,100.00
2022-08-19T03:05:47.902Z,100.00
2022-08-19T03:08:43.696Z,100.00
2022-08-19T03:11:32.280Z,100.00
2022-08-19T03:14:17.471Z,100.00
2022-08-19T03:17:04.097Z,100.00
2022-08-19T03:19:49.134Z,100.00
2022-08-19T03:22:34.011Z,100.00
2022-08-19T03:25:18.799Z,100.00
2022-08-19T03:28:03.969Z,100.00
2022-08-19T03:31:01.407Z,100.00
2022-08-19T03:33:46.779Z,100.00
2022-08-19T03:36:36.429Z,100.00
2022-08-19T03:39:22.960Z,100.00
2022-08-19T03:42:38.690Z,100.00
2022-08-19T03:45:14.456Z,100.00
2022-08-19T03:47:59.831Z,100.00
2022-08-19T03:50:45.554Z,100.00
2022-08-19T03:53:32.562Z,100.00
2022-08-19T03:56:18.914Z,100.00
2022-08-19T03:59:06.052Z,100.00
2022-08-19T04:01:50.925Z,100.00
2022-08-19T04:04:40.659Z,100.00
2022-08-19T04:07:25.921Z,100.00
2022-08-19T04:10:11.002Z,100.00
2022-08-19T04:12:56.852Z,100.00
2022-08-19T04:15:44.361Z,100.00
2022-08-19T04:18:32.522Z,100.00
2022-08-19T04:21:23.748Z,100.00
2022-08-19T04:24:09.982Z,100.00
2022-08-19T04:26:55.412Z,100.00
2022-08-19T04:29:40.216Z,100.00
2022-08-19T04:32:25.035Z,100.00
2022-08-19T04:35:16.747Z,100.00
2022-08-19T04:38:04.443Z,100.00
2022-08-19T04:40:51.379Z,100.00
2022-08-19T04:43:38.491Z,100.00
2022-08-19T04:46:39.632Z,100.00
2022-08-19T04:49:25.800Z,100.00
2022-08-19T04:52:11.204Z,100.00
2022-08-19T04:54:56.576Z,100.00
2022-08-19T04:57:41.532Z,100.00
2022-08-19T05:00:26.951Z,100.00
2022-08-19T05:03:12.381Z,100.00
2022-08-19T05:05:57.249Z,100.00
2022-08-19T05:08:43.424Z,100.00
2022-08-19T05:11:31.645Z,100.00
2022-08-19T05:14:16.581Z,100.00
2022-08-19T05:17:25.646Z,100.00
2022-08-19T05:20:08.113Z,100.00
2022-08-19T05:22:53.588Z,100.00
2022-08-19T05:25:40.711Z,100.00
2022-08-19T05:28:26.608Z,100.00
2022-08-19T05:31:11.654Z,100.00
2022-08-19T05:33:56.576Z,100.00
2022-08-19T05:36:44.452Z,100.00
2022-08-19T05:39:32.715Z,100.00
2022-08-19T05:42:17.776Z,100.00
2022-08-19T05:45:03.561Z,100.00
2022-08-19T05:47:48.945Z,100.00
2022-08-19T05:50:34.116Z,100.00
2022-08-19T05:53:20.802Z,100.00
2022-08-19T05:56:11.778Z,100.00
2022-08-19T05:58:58.382Z,100.00
2022-08-19T06:01:49.007Z,100.00
2022-08-19T06:04:34.772Z,100.00
2022-08-19T06:07:20.289Z,100.00
2022-08-19T06:10:08.582Z,100.00
2022-08-19T06:12:54.939Z,100.00
2022-08-19T06:15:40.204Z,100.00
2022-08-19T06:18:25.485Z,100.00
2022-08-19T06:21:10.572Z,100.00
2022-08-19T06:23:56.657Z,100.00
2022-08-19T06:26:43.858Z,100.00
2022-08-19T06:29:29.431Z,100.00
2022-08-19T06:32:17.016Z,100.00
2022-08-19T06:35:02.257Z,100.00
2022-08-19T06:37:47.339Z,100.00
2022-08-19T06:40:32.617Z,100.00
2022-08-19T06:43:18.572Z,100.00
2022-08-19T06:46:04.562Z,100.00
2022-08-19T06:48:51.781Z,100.00
2022-08-19T06:51:37.027Z,100.00
2022-08-19T06:54:30.621Z,100.00
2022-08-19T06:57:16.016Z,100.00
2022-08-19T07:00:01.725Z,100.00
2022-08-19T07:02:52.172Z,100.00
2022-08-19T07:05:43.140Z,100.00
2022-08-19T07:08:31.531Z,100.00
2022-08-19T07:11:19.027Z,100.00
2022-08-19T07:14:04.712Z,100.00
2022-08-19T07:16:51.644Z,100.00
2022-08-19T07:19:38.670Z,100.00
2022-08-19T07:22:24.481Z,98.46
2022-08-19T07:25:10.552Z,96.89
2022-08-19T07:27:55.848Z,96.30
2022-08-19T07:30:41.279Z,94.91
2022-08-19T07:33:29.265Z,93.06
2022-08-19T07:36:17.552Z,90.31
2022-08-19T07:39:11.867Z,86.22
2022-08-19T07:41:59.558Z,84.30
2022-08-19T07:44:49.941Z,84.36
2022-08-19T07:47:48.993Z,82.06
2022-08-19T07:50:36.007Z,80.39
2022-08-19T07:53:22.473Z,78.24
2022-08-19T07:56:07.635Z,74.30
2022-08-19T07:58:53.636Z,72.19
2022-08-19T08:01:41.772Z,70.41
2022-08-19T08:04:28.678Z,67.77
2022-08-19T08:07:13.669Z,67.46
2022-08-19T08:09:59.080Z,67.53
2022-08-19T08:13:08.802Z,64.43
2022-08-19T08:15:54.724Z,62.79
2022-08-19T08:18:41.854Z,63.12
2022-08-19T08:21:27.387Z,61.32
2022-08-19T08:24:12.757Z,64.60
2022-08-19T08:27:00.122Z,63.92
2022-08-19T08:29:45.381Z,62.78
2022-08-19T08:32:30.805Z,59.89
2022-08-19T08:35:18.554Z,61.45
2022-08-19T08:38:04.320Z,59.48
2022-08-19T08:40:54.336Z,58.42
2022-08-19T08:43:41.854Z,58.87
2022-08-19T08:46:36.542Z,58.88
2022-08-19T08:49:32.073Z,60.20
2022-08-19T08:52:33.356Z,61.48
2022-08-19T08:55:23.607Z,59.57
2022-08-19T08:58:32.550Z,59.49
2022-08-19T09:01:17.865Z,58.92
2022-08-19T09:04:07.566Z,58.41
2022-08-19T09:07:35.420Z,56.84
2022-08-19T09:10:44.207Z,57.97
2022-08-19T09:13:39.762Z,57.25
2022-08-19T09:16:28.596Z,58.33
2022-08-19T09:19:14.990Z,58.22
2022-08-19T09:22:07.785Z,57.86
2022-08-19T09:24:56.772Z,55.25
2022-08-19T09:27:43.694Z,56.00
2022-08-19T09:30:35.738Z,58.28
2022-08-19T09:33:20.944Z,55.60
2022-08-19T09:36:12.751Z,54.40
2022-08-19T09:39:16.277Z,58.50
2022-08-19T09:42:01.706Z,54.49
2022-08-19T09:44:47.077Z,54.38
2022-08-19T09:47:32.444Z,57.01
2022-08-19T09:50:17.836Z,58.23
2022-08-19T09:53:03.184Z,59.65
2022-08-19T09:55:48.012Z,59.59
2022-08-19T09:58:34.650Z,61.72
2022-08-19T10:01:26.387Z,61.95
2022-08-19T10:04:20.220Z,61.68
2022-08-19T10:07:07.171Z,60.14
2022-08-19T10:09:52.227Z,59.52
2022-08-19T10:12:37.653Z,61.32
2022-08-19T10:15:29.237Z,61.30
2022-08-19T10:18:15.976Z,61.70
2022-08-19T10:21:14.727Z,63.05
2022-08-19T10:24:03.666Z,62.42
2022-08-19T10:26:48.544Z,55.57
2022-08-19T10:29:46.371Z,52.69
2022-08-19T10:32:34.495Z,52.58
2022-08-19T10:35:21.690Z,54.62
2022-08-19T10:38:07.203Z,56.61
2022-08-19T10:40:55.834Z,55.63
2022-08-19T10:43:42.954Z,58.32
2022-08-19T10:46:29.045Z,60.16
2022-08-19T10:49:14.637Z,61.27
2022-08-19T10:51:59.826Z,59.25
2022-08-19T10:54:44.577Z,57.92
2022-08-19T10:57:52.407Z,58.46
2022-08-19T11:00:38.063Z,57.24
2022-08-19T11:03:24.570Z,58.45
2022-08-19T11:06:09.932Z,59.72
2022-08-19T11:08:55.491Z,56.52
2022-08-19T11:11:40.860Z,57.28
2022-08-19T11:14:25.913Z,58.55
2022-08-19T11:17:12.243Z,60.42
2022-08-19T11:19:57.707Z,55.65
2022-08-19T11:22:43.287Z,57.16
2022-08-19T11:25:28.317Z,56.62
2022-08-19T11:28:13.870Z,58.87
2022-08-19T11:30:59.503Z,56.66
2022-08-19T11:33:47.639Z,57.59
2022-08-19T11:36:33.345Z,57.31
2022-08-19T11:39:20.197Z,57.91
2022-08-19T11:42:07.089Z,59.15
2022-08-19T11:44:52.844Z,60.67
2022-08-19T11:47:37.831Z,55.56
2022-08-19T11:50:24.396Z,57.43
2022-08-19T11:53:10.047Z,58.54
2022-08-19T11:55:56.374Z,59.14
2022-08-19T11:58:41.480Z,60.61
2022-08-19T12:01:27.069Z,55.96
2022-08-19T12:04:12.461Z,56.74
2022-08-19T12:06:57.841Z,56.03
2022-08-19T12:09:43.157Z,53.41
2022-08-19T12:12:28.262Z,52.52
2022-08-19T12:15:13.767Z,49.54
2022-08-19T12:17:59.111Z,50.62
2022-08-19T12:20:44.545Z,50.71
2022-08-19T12:23:29.643Z,49.78
2022-08-19T12:26:16.165Z,48.21
2022-08-19T12:29:01.448Z,43.25
2022-08-19T12:31:46.351Z,41.87
2022-08-19T12:34:33.050Z,41.12
2022-08-19T12:37:18.605Z,41.51
2022-08-19T12:40:04.770Z,41.51
2022-08-19T12:42:49.759Z,41.12
2022-08-19T12:45:35.172Z,41.49
2022-08-19T12:48:34.414Z,38.34
2022-08-19T12:51:19.972Z,39.88
2022-08-19T12:54:04.919Z,37.16
2022-08-19T12:56:50.390Z,35.95
2022-08-19T12:59:36.737Z,38.22
2022-08-19T13:02:22.220Z,37.72
2022-08-19T13:05:09.445Z,36.94
2022-08-19T13:07:57.020Z,39.72
2022-08-19T13:10:42.418Z,36.15
2022-08-19T13:13:27.761Z,35.06
2022-08-19T13:16:13.748Z,35.44
2022-08-19T13:18:58.995Z,36.40
2022-08-19T13:21:44.206Z,35.90
2022-08-19T13:24:32.301Z,36.87
2022-08-19T13:27:19.326Z,38.07
2022-08-19T13:30:06.197Z,39.92
2022-08-19T13:32:51.447Z,39.93
2022-08-19T13:35:36.484Z,42.44
2022-08-19T13:38:22.810Z,42.24
2022-08-19T13:41:11.151Z,42.80
2022-08-19T13:43:58.338Z,44.80
2022-08-19T13:46:43.226Z,43.95
2022-08-19T13:49:29.505Z,45.67
2022-08-19T13:52:14.940Z,45.21
2022-08-19T13:55:00.310Z,45.12
2022-08-19T13:57:45.845Z,44.18
2022-08-19T14:00:35.511Z,44.75
2022-08-19T14:03:20.724Z,44.69
2022-08-19T14:06:06.330Z,44.73
2022-08-19T14:08:51.682Z,46.93
2022-08-19T14:11:37.054Z,45.54
2022-08-19T14:14:22.637Z,44.72
2022-08-19T14:17:08.655Z,44.85
2022-08-19T14:20:03.399Z,45.19
2022-08-19T14:22:56.401Z,46.48
2022-08-19T14:25:42.009Z,45.58
2022-08-19T14:28:28.236Z,46.53
2022-08-19T14:31:15.514Z,47.35
2022-08-19T14:34:00.809Z,45.51
2022-08-19T14:36:45.617Z,44.99
2022-08-19T14:39:30.938Z,45.24
2022-08-19T14:42:16.410Z,45.22
2022-08-19T14:45:02.554Z,45.21
2022-08-19T14:47:47.611Z,45.12
2022-08-19T14:50:33.900Z,46.19
2022-08-19T14:53:19.479Z,47.26
2022-08-19T14:56:12.665Z,46.75
2022-08-19T14:58:58.362Z,48.19
2022-08-19T15:01:43.997Z,48.76
2022-08-19T15:04:33.324Z,50.06
2022-08-19T15:07:19.051Z,50.61
2022-08-19T15:10:07.293Z,51.18
2022-08-19T15:12:52.379Z,52.25
2022-08-19T15:15:37.645Z,50.18
2022-08-19T15:18:23.492Z,51.38
2022-08-19T15:21:08.696Z,49.38
2022-08-19T15:23:56.618Z,52.99
2022-08-19T15:26:42.072Z,53.33
2022-08-19T15:29:27.657Z,52.91
2022-08-19T15:32:12.941Z,50.44
2022-08-19T15:34:58.356Z,51.24
2022-08-19T15:37:43.492Z,54.77
2022-08-19T15:40:29.103Z,55.53
2022-08-19T15:43:15.412Z,55.99
2022-08-19T15:46:00.624Z,52.57
2022-08-19T15:48:45.786Z,54.07
2022-08-19T15:51:44.065Z,55.41
2022-08-19T15:54:29.415Z,57.28
2022-08-19T15:57:14.839Z,55.29
2022-08-19T16:00:02.370Z,55.70
2022-08-19T16:02:48.368Z,55.72
2022-08-19T16:05:38.676Z,57.03
2022-08-19T16:08:23.578Z,56.89
2022-08-19T16:11:10.458Z,58.36
2022-08-19T16:13:56.903Z,57.56
2022-08-19T16:16:45.541Z,56.81
2022-08-19T16:19:30.855Z,56.74
2022-08-19T16:22:16.536Z,56.82
2022-08-19T16:25:01.744Z,56.60
2022-08-19T16:28:06.537Z,57.55
2022-08-19T16:30:52.371Z,56.33
2022-08-19T16:33:37.868Z,58.17
2022-08-19T16:36:23.252Z,58.92
2022-08-19T16:39:10.380Z,59.58
2022-08-19T16:41:55.616Z,56.06
2022-08-19T16:44:43.235Z,57.32
2022-08-19T16:47:28.384Z,56.75
2022-08-19T16:50:13.703Z,54.49
2022-08-19T16:52:58.771Z,58.54
2022-08-19T16:55:45.898Z,55.91
2022-08-19T16:58:31.891Z,55.75
2022-08-19T17:01:18.286Z,56.26
2022-08-19T17:04:03.897Z,54.95
2022-08-19T17:06:49.039Z,55.76
2022-08-19T17:09:33.973Z,56.15
2022-08-19T17:12:19.328Z,57.33
2022-08-19T17:15:05.247Z,56.41
2022-08-19T17:17:50.562Z,56.37
2022-08-19T17:20:36.677Z,59.37
2022-08-19T17:23:22.078Z,59.38
2022-08-19T17:26:28.289Z,59.48
2022-08-19T17:29:13.789Z,57.71
2022-08-19T17:31:59.796Z,60.31
2022-08-19T17:34:44.629Z,61.58
2022-08-19T17:37:30.045Z,60.72
2022-08-19T17:40:15.890Z,61.72
2022-08-19T17:43:11.013Z,60.91
2022-08-19T17:45:56.102Z,61.77
2022-08-19T17:48:41.118Z,60.77
2022-08-19T17:51:32.532Z,62.09
2022-08-19T17:54:19.428Z,62.20
2022-08-19T17:57:04.656Z,61.31
2022-08-19T17:59:50.224Z,62.53
2022-08-19T18:02:46.128Z,62.94
2022-08-19T18:05:40.829Z,63.16
2022-08-19T18:08:25.843Z,62.27
2022-08-19T18:11:11.997Z,63.06
2022-08-19T18:13:57.439Z,63.52
2022-08-19T18:16:42.359Z,63.11
2022-08-19T18:19:30.149Z,63.08
2022-08-19T18:22:30.312Z,63.51
2022-08-19T18:25:15.542Z,63.48
2022-08-19T18:28:01.412Z,63.39
2022-08-19T18:30:46.585Z,64.84
2022-08-19T18:33:32.160Z,64.02
2022-08-19T18:36:27.891Z,62.95
2022-08-19T18:39:21.968Z,61.05
2022-08-19T18:42:13.993Z,62.59
2022-08-19T18:45:00.178Z,63.65
2022-08-19T18:47:45.396Z,62.95
2022-08-19T18:50:30.784Z,64.32
2022-08-19T18:53:16.329Z,64.24
2022-08-19T18:56:02.084Z,64.71
2022-08-19T18:58:47.178Z,65.22
2022-08-19T19:01:36.368Z,65.67
2022-08-19T19:04:24.806Z,65.00
2022-08-19T19:07:09.884Z,66.06
2022-08-19T19:09:55.884Z,63.44
2022-08-19T19:12:43.733Z,65.26
2022-08-19T19:15:28.895Z,66.63
2022-08-19T19:18:13.928Z,67.37
2022-08-19T19:20:58.901Z,66.66
2022-08-19T19:23:44.229Z,65.45
2022-08-19T19:26:29.588Z,64.70
2022-08-19T19:29:16.326Z,66.43
2022-08-19T19:32:01.931Z,67.60
2022-08-19T19:34:47.621Z,68.49
2022-08-19T19:37:33.518Z,70.10
2022-08-19T19:40:21.527Z,69.94
2022-08-19T19:43:06.799Z,68.32
2022-08-19T19:45:51.743Z,69.21
2022-08-19T19:48:36.613Z,68.64
2022-08-19T19:51:22.228Z,68.02
2022-08-19T19:54:10.222Z,70.01
2022-08-19T19:56:55.205Z,70.43
2022-08-19T19:59:40.105Z,71.66
2022-08-19T20:02:31.712Z,72.66
2022-08-19T20:05:17.620Z,72.47
2022-08-19T20:08:02.897Z,71.66
2022-08-19T20:10:48.146Z,70.07
2022-08-19T20:13:34.037Z,69.95
2022-08-19T20:16:18.871Z,68.81
2022-08-19T20:19:04.458Z,67.90
2022-08-19T20:21:51.480Z,67.88
2022-08-19T20:24:36.602Z,67.16
2022-08-19T20:27:22.794Z,67.89
2022-08-19T20:30:19.466Z,68.38
2022-08-19T20:33:05.123Z,70.05
2022-08-19T20:35:50.638Z,70.27
2022-08-19T20:38:35.665Z,71.16
2022-08-19T20:41:20.924Z,72.17
2022-08-19T20:44:06.418Z,72.94
2022-08-19T20:46:55.421Z,73.37
2022-08-19T20:49:41.585Z,73.00
2022-08-19T20:52:26.883Z,72.74
2022-08-19T20:55:14.258Z,73.12
2022-08-19T20:58:02.267Z,73.56
2022-08-19T21:00:48.963Z,74.76
2022-08-19T21:03:36.506Z,75.20
2022-08-19T21:06:28.294Z,76.73
2022-08-19T21:09:15.096Z,76.18
2022-08-19T21:12:04.134Z,76.50
2022-08-19T21:14:49.290Z,77.03
2022-08-19T21:17:34.596Z,77.03
2022-08-19T21:20:20.072Z,76.80
2022-08-19T21:23:14.978Z,76.87
2022-08-19T21:26:00.552Z,77.34
2022-08-19T21:28:45.366Z,77.46
2022-08-19T21:31:30.813Z,77.73
2022-08-19T21:34:16.600Z,77.71
2022-08-19T21:37:01.600Z,78.09
2022-08-19T21:39:46.526Z,78.46
2022-08-19T21:42:34.851Z,78.97
2022-08-19T21:45:20.421Z,78.67
2022-08-19T21:48:05.889Z,78.90
2022-08-19T21:50:51.272Z,78.97
2022-08-19T21:53:36.217Z,79.00
2022-08-19T21:56:21.448Z,79.38
2022-08-19T21:59:06.504Z,80.05
2022-08-19T22:02:01.750Z,80.32
2022-08-19T22:04:56.703Z,80.38
2022-08-19T22:07:41.538Z,81.27
2022-08-19T22:10:29.842Z,81.72
2022-08-19T22:13:14.884Z,81.91
2022-08-19T22:16:00.114Z,82.02
2022-08-19T22:18:46.191Z,81.58
2022-08-19T22:21:40.920Z,80.96
2022-08-19T22:24:26.392Z,81.03
2022-08-19T22:27:11.742Z,80.79
2022-08-19T22:29:57.043Z,81.18
2022-08-19T22:32:56.173Z,81.86
2022-08-19T22:35:42.519Z,81.26
2022-08-19T22:38:28.200Z,82.25
2022-08-19T22:41:13.575Z,81.54
2022-08-19T22:43:59.522Z,81.73
2022-08-19T22:46:44.794Z,81.41
2022-08-19T22:49:30.249Z,81.35
2022-08-19T22:52:16.533Z,81.54
2022-08-19T22:55:05.202Z,81.95
2022-08-19T22:57:50.634Z,81.67
2022-08-19T23:00:35.525Z,82.12
2022-08-19T23:03:20.864Z,82.23
2022-08-19T23:06:06.876Z,82.29
2022-08-19T23:08:52.200Z,82.12
2022-08-19T23:11:41.529Z,82.20
2022-08-19T23:14:27.932Z,82.26
2022-08-19T23:17:12.960Z,82.63
2022-08-19T23:19:58.006Z,82.93
2022-08-19T23:22:45.955Z,82.77
2022-08-19T23:25:33.568Z,82.99
2022-08-19T23:28:19.781Z,83.23
2022-08-19T23:31:05.491Z,83.38
2022-08-19T23:33:51.382Z,83.11
2022-08-19T23:36:36.968Z,83.36
2022-08-19T23:39:21.897Z,83.29
2022-08-19T23:42:11.281Z,83.54
2022-08-19T23:45:02.302Z,83.41
2022-08-19T23:47:48.997Z,83.68
2022-08-19T23:50:34.859Z,84.67
2022-08-19T23:53:20.394Z,84.20
2022-08-19T23:56:06.543Z,84.82
2022-08-19T23:58:51.924Z,84.62
